Hlavní strana
METAR-TAF:

METAR-TAF

Letiště :

Letiště Atény

Athény, Řecko

zeměpisná šířka: 37-56N, zeměpisná délka: 023-56E, výška: 94 m

Aktuální stav počasí

Zpráva byla vytvořena před 30 minutami, v 21:50 UTC
Severoseverovýchodní vítr 18 kt
Teplota 14°C
Vlhkost vzduchu 67%
Tlak 1025 hPa
Viditelnost 10 km a více
Oblačno až skoro zataženo ve výšce 3000 ft

METAR: LGAV 132150Z 03018KT 9999 BKN030 14/08 Q1025 NOSIG

Čas: 00:20 (22:20 UTC)

Předpověď počasí

Zpráva byla vytvořena před 5 hodinami a 20 minutami, v 17:00 UTC
Předpověď platná od 13 v 18 UTC do 14 v 18 UTC
Severoseverovýchodní vítr 22 kt
Viditelnost 10 km a více
Polojasno ve výšce 3000 ft
Dočasný
od 13 v 18 UTC do 14 v 06 UTC
Severoseverovýchodní vítr 22 kt s nárazy do 32 kt

TAF: LGAV 131700Z 1318/1418 02022KT 9999 SCT030 TEMPO 1318/1406 02022G32KT

Stav a předpovědi počasí z více než 4 000 letišť (zprávy METAR a TAF).

Červené a žluté tečky na mapě představují dostupné meteorologické stanice.

Když kurzor umístíte na tečku, zobrazí se název stanice.

Pak kliknutím zobrazíte stav a předpověď počasí.

Chcete-li změnit mapu, kliknutím na zelené tlačítko se znaménkem +mapu přiblížíte, kliknutím na zelené tlačítko se znaménkem – mapu oddálíte a kliknutím na zelené šipky přejdete na sousední mapy.


METAR-TAF: